Time;durP1;ratioP1;P1;durP2;ratioP2;P2;SDS_P1;SDS_P2;PMS_P1;PMS_P2;Temp;Humidity;BMP_temperature;BMP_pressure;BME280_temperature;BME280_humidity;BME280_pressure;Samples;Min_cycle;Max_cycle;Signal;HPM_P1;HPM_P2
2020/12/14 00:00:15;;;;;;;14.40;12.90;;;;;;;0.04;100.00;97824.91;4988184;28;20669;-74
2020/12/14 00:02:43;;;;;;;15.60;13.93;;;;;;;0.08;100.00;97819.41;4954676;28;20609;-72
2020/12/14 00:05:11;;;;;;;15.13;13.83;;;;;;;-0.02;100.00;97821.78;4957232;28;20642;-72
2020/12/14 00:07:38;;;;;;;14.77;13.37;;;;;;;-0.06;100.00;97829.91;4975957;28;20225;-71
2020/12/14 00:10:06;;;;;;;14.40;13.13;;;;;;;-0.13;100.00;97841.66;4983773;28;20300;-72
2020/12/14 00:12:33;;;;;;;14.83;13.43;;;;;;;-0.11;100.00;97848.44;4981999;28;20748;-70
2020/12/14 00:15:00;;;;;;;17.17;13.73;;;;;;;-0.05;100.00;97857.63;4981239;28;20949;-73
2020/12/14 00:17:28;;;;;;;29.03;14.87;;;;;;;-0.02;100.00;97857.41;4979278;28;20650;-71
2020/12/14 00:19:56;;;;;;;19.63;14.53;;;;;;;0.06;100.00;97859.53;4968445;28;20586;-73
2020/12/14 00:22:23;;;;;;;22.23;14.27;;;;;;;0.11;100.00;97867.88;4959242;28;20722;-70
2020/12/14 00:24:50;;;;;;;27.70;14.80;;;;;;;0.20;100.00;97874.25;4979889;28;20730;-73
2020/12/14 00:27:17;;;;;;;21.60;13.87;;;;;;;0.21;100.00;97888.97;4987563;28;20490;-73
2020/12/14 00:29:44;;;;;;;26.27;15.03;;;;;;;0.19;100.00;97899.50;4960484;28;20343;-73
2020/12/14 00:32:12;;;;;;;18.40;12.20;;;;;;;0.21;100.00;97907.19;4980214;28;20201;-73
2020/12/14 00:34:39;;;;;;;14.37;11.93;;;;;;;0.13;100.00;97902.47;4952704;28;20304;-70
2020/12/14 00:37:07;;;;;;;21.13;12.53;;;;;;;0.15;100.00;97900.59;4952948;28;20225;-73
2020/12/14 00:39:34;;;;;;;34.03;12.93;;;;;;;0.31;100.00;97899.63;4981245;28;20622;-71
2020/12/14 00:42:02;;;;;;;23.00;12.10;;;;;;;0.26;100.00;97887.72;4982310;28;20308;-73
2020/12/14 00:44:29;;;;;;;14.63;12.10;;;;;;;0.18;100.00;97879.56;4983887;28;20741;-70
2020/12/14 00:46:56;;;;;;;48.43;16.63;;;;;;;0.12;100.00;97878.22;4986978;28;20499;-73
2020/12/14 00:49:24;;;;;;;46.60;18.37;;;;;;;0.11;100.00;97875.69;4982384;28;20276;-70
2020/12/14 00:51:51;;;;;;;32.50;13.77;;;;;;;0.00;100.00;97876.41;4929558;28;21471;-73
2020/12/14 00:54:19;;;;;;;39.57;13.60;;;;;;;0.06;100.00;97864.72;4986378;28;20205;-72
2020/12/14 00:56:46;;;;;;;25.43;12.50;;;;;;;-0.04;100.00;97854.06;4976794;28;20236;-71
2020/12/14 00:59:13;;;;;;;18.97;12.33;;;;;;;-0.17;100.00;97857.50;4986757;28;20284;-73
2020/12/14 01:01:40;;;;;;;19.50;10.57;;;;;;;-0.15;100.00;97853.00;4984031;28;20201;-73
2020/12/14 01:04:08;;;;;;;18.37;10.27;;;;;;;-0.21;100.00;97843.00;4978506;28;20202;-74
2020/12/14 01:06:35;;;;;;;14.60;11.40;;;;;;;-0.23;100.00;97847.47;4927002;28;20232;-71
2020/12/14 01:09:02;;;;;;;14.20;10.30;;;;;;;-0.32;100.00;97850.69;4967940;28;20471;-73
2020/12/14 01:11:30;;;;;;;14.87;9.37;;;;;;;-0.30;100.00;97844.41;4982403;28;20197;-71
2020/12/14 01:13:58;;;;;;;17.43;9.80;;;;;;;-0.25;100.00;97843.28;4979736;28;20510;-74
2020/12/14 01:16:25;;;;;;;13.87;12.30;;;;;;;-0.38;100.00;97846.69;4985989;28;20228;-72
2020/12/14 01:18:52;;;;;;;11.60;10.50;;;;;;;-0.27;100.00;97846.00;4977219;28;20789;-74
2020/12/14 01:21:22;;;;;;;10.33;9.43;;;;;;;-0.33;100.00;97844.63;4966307;28;20588;-74
2020/12/14 01:23:50;;;;;;;9.53;8.63;;;;;;;-0.31;100.00;97871.41;4953822;28;20254;-73
2020/12/14 01:26:18;;;;;;;10.67;9.77;;;;;;;-0.22;100.00;97882.16;4981025;28;20248;-73
2020/12/14 01:28:46;;;;;;;10.20;9.30;;;;;;;-0.16;100.00;97884.38;4975929;28;20872;-72
2020/12/14 01:31:13;;;;;;;10.00;9.10;;;;;;;-0.26;100.00;97891.94;4984604;28;20667;-73
2020/12/14 01:33:41;;;;;;;10.77;9.73;;;;;;;-0.22;100.00;97903.84;4976352;28;20233;-73
2020/12/14 01:36:08;;;;;;;9.87;9.07;;;;;;;-0.30;100.00;97893.91;4957445;28;20675;-73
2020/12/14 01:38:35;;;;;;;10.30;9.30;;;;;;;-0.18;100.00;97891.47;4955567;28;21027;-71
2020/12/14 01:41:02;;;;;;;10.50;9.53;;;;;;;-0.28;100.00;97874.75;4981240;28;20206;-74
2020/12/14 01:43:29;;;;;;;10.53;9.43;;;;;;;-0.12;100.00;97866.78;4980040;28;20203;-71
2020/12/14 01:45:58;;;;;;;10.57;9.50;;;;;;;-0.17;100.00;97854.06;4982300;28;20259;-73
2020/12/14 01:48:25;;;;;;;10.50;9.50;;;;;;;-0.22;100.00;97846.53;4979779;28;20208;-71
2020/12/14 01:50:53;;;;;;;11.07;10.07;;;;;;;-0.36;100.00;97860.44;4956240;28;20827;-74
2020/12/14 01:53:22;;;;;;;10.83;9.83;;;;;;;-0.44;100.00;97867.91;4997262;28;20228;-71
2020/12/14 01:55:54;;;;;;;11.27;10.17;;;;;;;-0.46;100.00;97877.59;4967255;28;20232;-74
2020/12/14 01:58:21;;;;;;;9.50;8.60;;;;;;;-0.48;100.00;97895.91;4985343;28;20219;-72
2020/12/14 02:00:49;;;;;;;10.07;9.03;;;;;;;-0.41;100.00;97904.19;4976168;28;20641;-74
2020/12/14 02:03:18;;;;;;;10.83;9.83;;;;;;;-0.37;100.00;97900.44;4984817;28;20197;-74
2020/12/14 02:05:45;;;;;;;12.70;9.50;;;;;;;-0.41;100.00;97893.75;4950768;28;20302;-73
2020/12/14 02:08:12;;;;;;;10.63;9.63;;;;;;;-0.45;100.00;97882.69;4988186;28;20474;-73
2020/12/14 02:10:39;;;;;;;12.77;10.53;;;;;;;-0.48;100.00;97885.50;4947797;28;20250;-71
2020/12/14 02:13:06;;;;;;;11.40;10.20;;;;;;;-0.44;100.00;97889.56;4982697;28;20208;-74
2020/12/14 02:15:33;;;;;;;18.17;10.90;;;;;;;-0.47;100.00;97904.56;4978719;28;20636;-71
2020/12/14 02:18:00;;;;;;;20.93;11.20;;;;;;;-0.36;100.00;97902.09;4981614;28;20480;-74
2020/12/14 02:20:29;;;;;;;13.93;10.33;;;;;;;-0.26;100.00;97899.75;4981096;28;20292;-71
2020/12/14 02:22:56;;;;;;;18.63;10.03;;;;;;;-0.33;100.00;97899.31;4962579;28;20598;-72
2020/12/14 02:25:24;;;;;;;15.33;9.70;;;;;;;-0.46;100.00;97888.84;4949362;28;20504;-72
2020/12/14 02:27:51;;;;;;;11.90;10.63;;;;;;;-0.43;100.00;97893.03;4982228;28;20883;-74
2020/12/14 02:30:18;;;;;;;12.07;9.27;;;;;;;-0.40;100.00;97887.63;4981559;28;20467;-74
2020/12/14 02:32:45;;;;;;;15.13;10.33;;;;;;;-0.46;100.00;97883.63;4984549;28;20927;-74
2020/12/14 02:35:12;;;;;;;23.20;10.07;;;;;;;-0.49;100.00;97875.19;4987994;28;20464;-73
2020/12/14 02:37:39;;;;;;;18.10;9.50;;;;;;;-0.44;100.00;97870.53;4955351;28;20876;-72
2020/12/14 02:40:07;;;;;;;18.90;8.87;;;;;;;-0.46;100.00;97865.41;4958974;28;20534;-72
2020/12/14 02:42:35;;;;;;;37.47;9.47;;;;;;;-0.47;100.00;97850.72;4984589;28;21332;-72
2020/12/14 02:45:03;;;;;;;19.97;9.57;;;;;;;-0.43;100.00;97861.78;4980581;28;20453;-74
2020/12/14 02:47:30;;;;;;;13.07;10.63;;;;;;;-0.53;100.00;97848.50;4987157;28;21122;-72
2020/12/14 02:49:57;;;;;;;16.90;9.80;;;;;;;-0.54;100.00;97853.81;4982776;28;20452;-71
2020/12/14 02:52:24;;;;;;;12.90;9.43;;;;;;;-0.63;100.00;97840.44;4982065;28;20480;-74
2020/12/14 02:54:52;;;;;;;14.97;10.33;;;;;;;-0.53;100.00;97847.69;4956687;28;20220;-70
2020/12/14 02:57:19;;;;;;;16.57;9.63;;;;;;;-0.48;100.00;97846.44;4962244;28;20672;-74
2020/12/14 02:59:47;;;;;;;14.40;8.50;;;;;;;-0.43;100.00;97848.75;4990525;28;20727;-74
2020/12/14 03:02:14;;;;;;;10.03;9.03;;;;;;;-0.47;100.00;97842.09;4985653;28;20445;-74
2020/12/14 03:04:42;;;;;;;10.77;8.33;;;;;;;-0.56;100.00;97842.69;4988611;28;20260;-73
2020/12/14 03:07:10;;;;;;;12.20;8.63;;;;;;;-0.52;100.00;97846.75;4981595;28;20548;-73
2020/12/14 03:09:37;;;;;;;13.27;8.00;;;;;;;-0.53;100.00;97843.28;4960145;28;20702;-71
2020/12/14 03:12:04;;;;;;;12.47;7.40;;;;;;;-0.55;100.00;97837.34;4959961;28;20588;-74
2020/12/14 03:14:31;;;;;;;14.63;9.27;;;;;;;-0.55;100.00;97832.16;4982578;28;20227;-74
2020/12/14 03:17:01;;;;;;;10.37;7.80;;;;;;;-0.56;100.00;97829.66;4980328;28;20443;-74
2020/12/14 03:19:28;;;;;;;8.07;7.27;;;;;;;-0.54;100.00;97841.63;4986168;28;20831;-74
2020/12/14 03:21:55;;;;;;;9.03;7.63;;;;;;;-0.48;100.00;97843.84;4979088;28;20444;-74
2020/12/14 03:24:22;;;;;;;8.90;8.00;;;;;;;-0.56;100.00;97840.06;4953565;28;20221;-74
2020/12/14 03:26:50;;;;;;;13.47;7.70;;;;;;;-0.53;100.00;97839.88;4958071;28;20232;-71
2020/12/14 03:29:18;;;;;;;10.57;9.47;;;;;;;-0.50;100.00;97848.31;4981731;28;20271;-73
2020/12/14 03:31:46;;;;;;;10.50;8.10;;;;;;;-0.57;100.00;97844.44;4982314;28;20558;-71
2020/12/14 03:34:14;;;;;;;17.13;8.17;;;;;;;-0.62;100.00;97842.09;4983112;28;20455;-74
2020/12/14 03:36:41;;;;;;;10.73;8.60;;;;;;;-0.61;100.00;97853.38;4981192;28;20487;-71
2020/12/14 03:39:08;;;;;;;9.40;8.40;;;;;;;-0.57;100.00;97852.25;4981798;28;20453;-73
2020/12/14 03:41:35;;;;;;;8.27;7.40;;;;;;;-0.52;100.00;97854.56;4959223;28;20220;-70
2020/12/14 03:44:03;;;;;;;10.37;8.57;;;;;;;-0.47;100.00;97852.50;4962411;28;20690;-72
2020/12/14 03:46:32;;;;;;;14.13;7.93;;;;;;;-0.50;100.00;97856.13;4988974;28;20237;-74
2020/12/14 03:49:00;;;;;;;8.60;7.80;;;;;;;-0.43;100.00;97859.19;4980313;28;20507;-74
2020/12/14 03:51:30;;;;;;;12.60;8.73;;;;;;;-0.40;100.00;97851.16;4985298;28;20452;-69
2020/12/14 03:53:57;;;;;;;12.93;8.27;;;;;;;-0.35;100.00;97836.06;4971480;28;20198;-69
2020/12/14 03:56:25;;;;;;;12.80;9.00;;;;;;;-0.40;100.00;97834.69;4949021;28;20485;-69
2020/12/14 03:58:52;;;;;;;14.20;8.37;;;;;;;-0.47;100.00;97832.50;4943739;28;20693;-71
2020/12/14 04:01:20;;;;;;;12.23;9.87;;;;;;;-0.45;100.00;97829.81;4977314;28;20220;-72
2020/12/14 04:03:48;;;;;;;10.47;8.37;;;;;;;-0.36;100.00;97844.81;4973930;28;20209;-72
2020/12/14 04:06:19;;;;;;;9.40;8.43;;;;;;;-0.42;100.00;97850.44;4984964;28;20221;-73
2020/12/14 04:08:48;;;;;;;9.37;8.47;;;;;;;-0.38;100.00;97857.09;4978413;28;20455;-71
2020/12/14 04:11:15;;;;;;;9.23;8.33;;;;;;;-0.35;100.00;97849.09;4960242;28;20582;-74
2020/12/14 04:13:42;;;;;;;9.63;8.83;;;;;;;-0.16;100.00;97843.53;4951122;28;20484;-72
2020/12/14 04:16:10;;;;;;;9.70;8.90;;;;;;;-0.28;100.00;97848.69;4980325;28;20917;-73
2020/12/14 04:18:38;;;;;;;10.50;9.50;;;;;;;-0.10;100.00;97855.34;4980241;28;20511;-72
2020/12/14 04:21:07;;;;;;;9.90;9.00;;;;;;;-0.02;100.00;97853.06;4963357;28;20418;-72
2020/12/14 04:23:37;;;;;;;10.37;9.43;;;;;;;0.03;100.00;97847.56;4978551;28;20457;-73
2020/12/14 04:26:05;;;;;;;10.47;9.57;;;;;;;-0.04;100.00;97843.66;4957599;28;20419;-72
2020/12/14 04:28:33;;;;;;;9.60;8.80;;;;;;;-0.01;100.00;97839.09;4942831;28;21753;-72
2020/12/14 04:31:00;;;;;;;10.27;9.27;;;;;;;0.05;100.00;97842.22;4975539;28;20289;-74
2020/12/14 04:33:28;;;;;;;9.30;8.43;;;;;;;0.07;100.00;97829.94;4981083;28;20665;-74
2020/12/14 04:35:56;;;;;;;10.37;9.37;;;;;;;0.27;100.00;97839.03;4982086;28;20214;-73
2020/12/14 04:38:23;;;;;;;8.73;8.03;;;;;;;0.14;100.00;97832.03;4970439;28;20329;-73
2020/12/14 04:40:50;;;;;;;9.23;8.33;;;;;;;0.12;100.00;97843.47;4985542;28;20201;-74
2020/12/14 04:43:19;;;;;;;9.80;8.90;;;;;;;0.16;100.00;97844.94;4955394;28;20205;-71
2020/12/14 04:45:49;;;;;;;9.77;8.87;;;;;;;0.12;100.00;97846.94;4956126;28;20219;-74
2020/12/14 04:48:17;;;;;;;9.80;8.93;;;;;;;0.19;100.00;97855.19;4977419;28;20343;-72
2020/12/14 04:50:45;;;;;;;9.90;8.97;;;;;;;0.22;100.00;97856.75;4982505;28;20731;-74
2020/12/14 04:53:12;;;;;;;10.47;9.47;;;;;;;0.33;100.00;97858.63;4981408;28;20612;-71
2020/12/14 04:55:40;;;;;;;10.13;9.30;;;;;;;0.40;100.00;97852.91;4974550;28;20608;-72
2020/12/14 04:58:09;;;;;;;10.37;9.37;;;;;;;0.51;100.00;97851.34;4955979;28;20229;-72
2020/12/14 05:00:37;;;;;;;10.50;9.40;;;;;;;0.56;100.00;97849.25;4951954;28;21192;-74
2020/12/14 05:03:04;;;;;;;10.17;9.17;;;;;;;0.63;100.00;97847.91;4969551;28;20201;-72
2020/12/14 05:05:32;;;;;;;9.63;8.77;;;;;;;0.63;100.00;97850.50;4975387;28;20310;-74
2020/12/14 05:07:59;;;;;;;9.57;8.67;;;;;;;0.56;100.00;97862.31;4980942;28;20244;-74
2020/12/14 05:10:28;;;;;;;9.80;8.80;;;;;;;0.59;100.00;97866.50;4975678;28;20515;-74
2020/12/14 05:12:55;;;;;;;10.33;9.43;;;;;;;0.57;100.00;97869.19;4939917;28;20213;-72
2020/12/14 05:15:24;;;;;;;9.70;8.80;;;;;;;0.49;100.00;97863.66;4945179;28;20263;-70
2020/12/14 05:18:08;;;;;;;10.83;9.83;;;;;;;0.54;100.00;97866.78;4957630;28;20532;-72
2020/12/14 05:20:35;;;;;;;9.60;8.70;;;;;;;0.59;100.00;97869.91;4978365;28;20498;-72
2020/12/14 05:23:04;;;;;;;10.20;9.20;;;;;;;0.52;100.00;97873.88;4982121;28;20656;-72
2020/12/14 05:25:31;;;;;;;9.77;8.87;;;;;;;0.71;100.00;97870.84;4982939;28;20419;-74
2020/12/14 05:28:04;;;;;;;9.67;8.87;;;;;;;0.71;100.00;97874.28;4981256;28;20242;-74
2020/12/14 05:30:36;;;;;;;10.33;9.37;;;;;;;0.88;100.00;97871.47;4925396;28;20988;-73
2020/12/14 05:33:04;;;;;;;10.77;9.73;;;;;;;0.88;100.00;97872.31;4978326;28;20431;-72
2020/12/14 05:35:33;;;;;;;10.03;9.03;;;;;;;0.86;100.00;97872.41;4977772;28;20206;-73
2020/12/14 05:38:14;;;;;;;13.00;9.97;;;;;;;0.78;100.00;97877.31;4982570;28;20229;-72
2020/12/14 05:40:42;;;;;;;10.73;9.73;;;;;;;0.82;100.00;97865.72;4977236;28;20300;-72
2020/12/14 05:43:11;;;;;;;13.30;11.90;;;;;;;0.88;100.00;97854.03;4967997;28;20197;-72
2020/12/14 05:45:38;;;;;;;12.97;11.63;;;;;;;0.77;100.00;97856.56;4940246;28;20385;-73
2020/12/14 05:48:22;;;;;;;12.00;10.90;;;;;;;0.86;100.00;97856.75;4951472;28;20264;-72
2020/12/14 05:50:50;;;;;;;11.73;10.73;;;;;;;0.76;100.00;97854.88;4982674;28;20735;-73
2020/12/14 05:53:19;;;;;;;11.93;10.73;;;;;;;0.77;100.00;97851.34;4979046;28;20211;-72
2020/12/14 05:55:47;;;;;;;10.43;9.43;;;;;;;0.66;100.00;97854.69;4980013;28;20228;-73
2020/12/14 05:58:16;;;;;;;10.00;9.00;;;;;;;0.71;100.00;97858.63;4963996;28;20237;-73
2020/12/14 06:00:45;;;;;;;10.40;9.43;;;;;;;0.80;100.00;97859.78;4977444;28;20865;-71
2020/12/14 06:03:13;;;;;;;10.57;9.57;;;;;;;0.98;100.00;97864.69;4957235;28;20949;-72
2020/12/14 06:05:41;;;;;;;9.20;8.30;;;;;;;0.88;100.00;97867.09;4982496;28;20431;-73
2020/12/14 06:08:24;;;;;;;10.20;9.30;;;;;;;0.76;100.00;97858.34;4990100;28;20247;-72
2020/12/14 06:10:51;;;;;;;9.77;8.90;;;;;;;0.90;100.00;97860.00;4985173;28;20205;-74
2020/12/14 06:13:22;;;;;;;10.03;9.03;;;;;;;0.78;100.00;97863.47;4980554;28;20507;-71
2020/12/14 06:15:50;;;;;;;10.27;9.33;;;;;;;0.74;100.00;97864.59;4967253;28;20213;-73
2020/12/14 06:18:21;;;;;;;10.27;9.37;;;;;;;0.76;100.00;97865.31;4952925;28;20229;-72
2020/12/14 06:20:48;;;;;;;11.00;10.00;;;;;;;0.93;100.00;97864.16;4984169;28;20546;-73
2020/12/14 06:23:17;;;;;;;10.07;9.07;;;;;;;1.01;100.00;97856.63;4981730;28;20223;-72
2020/12/14 06:25:45;;;;;;;11.67;9.67;;;;;;;1.05;100.00;97852.88;4987755;28;20209;-73
2020/12/14 06:28:28;;;;;;;10.13;9.13;;;;;;;1.04;100.00;97851.22;4980356;28;20257;-72
2020/12/14 06:30:55;;;;;;;11.70;10.60;;;;;;;1.12;100.00;97845.44;4963863;28;20207;-73
2020/12/14 06:33:34;;;;;;;10.07;9.17;;;;;;;1.12;100.00;97841.06;4953993;28;20569;-72
2020/12/14 06:36:23;;;;;;;11.53;9.80;;;;;;;0.92;100.00;97846.81;4975124;28;20230;-74
2020/12/14 06:38:51;;;;;;;10.73;9.77;;;;;;;0.98;100.00;97842.03;4974235;28;20231;-74
2020/12/14 06:41:20;;;;;;;11.10;10.00;;;;;;;0.91;100.00;97845.16;4981803;28;20208;-73
2020/12/14 06:43:48;;;;;;;11.33;10.23;;;;;;;1.14;100.00;97838.34;4985444;28;20663;-73
2020/12/14 06:46:26;;;;;;;12.17;11.07;;;;;;;1.18;100.00;97845.03;4970556;28;20311;-72
2020/12/14 06:48:54;;;;;;;12.13;11.03;;;;;;;1.17;100.00;97847.72;4985312;28;20621;-72
2020/12/14 06:51:22;;;;;;;11.70;10.60;;;;;;;1.06;100.00;97844.09;4949109;28;20222;-72
2020/12/14 06:53:53;;;;;;;11.63;10.53;;;;;;;1.30;100.00;97846.75;4987155;28;20886;-73
2020/12/14 06:56:45;;;;;;;11.50;10.33;;;;;;;1.23;100.00;97842.91;4983280;28;20539;-71
2020/12/14 06:59:29;;;;;;;12.17;10.97;;;;;;;1.27;100.00;97840.91;4987360;28;20215;-72
2020/12/14 07:01:57;;;;;;;11.43;10.43;;;;;;;1.22;100.00;97848.22;4985055;28;20231;-73
2020/12/14 07:04:41;;;;;;;11.60;10.50;;;;;;;1.23;100.00;97835.09;4937721;28;21327;-74
2020/12/14 07:07:33;;;;;;;11.10;10.00;;;;;;;1.27;100.00;97836.53;4980195;28;20725;-72
2020/12/14 07:10:15;;;;;;;10.90;10.00;;;;;;;1.28;100.00;97837.34;4979791;28;20325;-73
2020/12/14 07:12:43;;;;;;;13.83;10.90;;;;;;;1.35;100.00;97836.00;4983404;28;20236;-73
2020/12/14 07:15:23;;;;;;;10.97;9.87;;;;;;;1.49;100.00;97818.50;4985356;28;20402;-72
2020/12/14 07:18:05;;;;;;;12.93;11.73;;;;;;;1.38;100.00;97827.09;4959497;28;20236;-73
2020/12/14 07:20:35;;;;;;;14.53;13.17;;;;;;;1.48;100.00;97833.31;4949227;28;20924;-73
2020/12/14 07:23:06;;;;;;;13.63;11.67;;;;;;;1.39;100.00;97832.22;4979523;28;20313;-72
2020/12/14 07:25:34;;;;;;;11.63;10.43;;;;;;;1.47;100.00;97831.63;4983837;28;20286;-72
2020/12/14 07:28:02;;;;;;;12.27;11.07;;;;;;;1.54;100.00;97832.03;4983129;28;20244;-73
2020/12/14 07:30:29;;;;;;;12.47;11.17;;;;;;;1.66;100.00;97825.91;4963220;28;20296;-72
2020/12/14 07:32:59;;;;;;;11.60;10.40;;;;;;;1.62;100.00;97828.88;4976240;28;20210;-71
2020/12/14 07:35:26;;;;;;;12.33;11.13;;;;;;;1.57;100.00;97835.28;4933817;28;21034;-73
2020/12/14 07:37:54;;;;;;;12.27;11.00;;;;;;;1.61;100.00;97832.44;4981984;28;20690;-73
2020/12/14 07:40:22;;;;;;;11.90;10.80;;;;;;;1.64;100.00;97835.66;4977003;28;20201;-71
2020/12/14 07:42:49;;;;;;;13.13;11.93;;;;;;;1.76;100.00;97838.34;4985505;28;20201;-74
2020/12/14 07:45:18;;;;;;;13.47;12.13;;;;;;;1.73;100.00;97842.84;4980051;28;20205;-72
2020/12/14 07:47:46;;;;;;;12.43;11.17;;;;;;;1.85;100.00;97846.31;4988177;28;20221;-74
2020/12/14 07:50:15;;;;;;;12.03;10.83;;;;;;;1.85;100.00;97846.31;4963099;28;20438;-72
2020/12/14 07:52:43;;;;;;;12.93;11.63;;;;;;;2.04;100.00;97842.34;4959766;28;20235;-74
2020/12/14 07:55:11;;;;;;;12.80;11.70;;;;;;;2.13;100.00;97851.31;4983045;28;20205;-71
2020/12/14 07:57:40;;;;;;;12.53;11.30;;;;;;;2.11;100.00;97845.34;4985818;28;20462;-71
2020/12/14 08:00:08;;;;;;;13.47;12.07;;;;;;;2.11;100.00;97853.19;4982278;28;20342;-72
2020/12/14 08:02:35;;;;;;;13.37;12.07;;;;;;;2.28;100.00;97858.00;4983397;28;20426;-72
2020/12/14 08:05:05;;;;;;;14.70;11.50;;;;;;;2.35;100.00;97857.53;4964653;28;20240;-73
2020/12/14 08:07:46;;;;;;;12.10;10.90;;;;;;;2.28;100.00;97865.84;4955102;28;20425;-73
2020/12/14 08:10:21;;;;;;;12.83;11.63;;;;;;;2.50;100.00;97864.25;4982322;28;20207;-71
2020/12/14 08:12:48;;;;;;;12.73;11.53;;;;;;;2.45;100.00;97867.19;4971911;28;20300;-72
2020/12/14 08:15:18;;;;;;;13.03;11.73;;;;;;;2.69;100.00;97875.91;4982259;28;20208;-71
2020/12/14 08:17:46;;;;;;;12.17;11.07;;;;;;;2.64;100.00;97875.44;4984159;28;20327;-73
2020/12/14 08:20:32;;;;;;;12.47;11.37;;;;;;;2.72;100.00;97876.53;4949615;28;20577;-71
2020/12/14 08:23:00;;;;;;;13.10;11.80;;;;;;;2.67;100.00;97878.66;4957500;28;20217;-72
2020/12/14 08:25:28;;;;;;;10.97;9.90;;;;;;;3.04;100.00;97888.06;4981896;28;20291;-73
2020/12/14 08:27:57;;;;;;;11.60;10.50;;;;;;;3.00;100.00;97877.00;4984789;28;20247;-74
2020/12/14 08:30:25;;;;;;;11.63;10.60;;;;;;;3.01;100.00;97877.84;4978791;28;20209;-73
2020/12/14 08:33:09;;;;;;;12.03;10.93;;;;;;;3.06;100.00;97874.88;4983023;28;20211;-72
2020/12/14 08:35:37;;;;;;;11.20;10.20;;;;;;;3.15;100.00;97874.16;4954999;28;20383;-72
2020/12/14 08:38:05;;;;;;;11.33;10.30;;;;;;;3.05;100.00;97881.88;4955539;28;20233;-70
2020/12/14 08:40:34;;;;;;;10.83;9.80;;;;;;;3.20;100.00;97890.34;4980586;28;20653;-72
2020/12/14 08:43:09;;;;;;;11.57;10.53;;;;;;;3.27;100.00;97894.13;4983554;28;20198;-73
2020/12/14 08:45:38;;;;;;;11.50;10.40;;;;;;;3.35;100.00;97896.16;4979398;28;20891;-71
2020/12/14 08:48:06;;;;;;;10.93;10.03;;;;;;;3.35;100.00;97898.78;4981938;28;20229;-70
2020/12/14 08:50:33;;;;;;;11.57;10.30;;;;;;;3.54;100.00;97892.91;4950843;28;20209;-71
2020/12/14 08:53:01;;;;;;;10.70;9.70;;;;;;;3.65;100.00;97899.09;4983803;28;20701;-73
2020/12/14 08:55:39;;;;;;;10.53;9.53;;;;;;;3.69;100.00;97910.97;4955878;28;20673;-74
2020/12/14 08:58:06;;;;;;;11.20;10.10;;;;;;;3.71;100.00;97902.06;4975924;28;20225;-71
2020/12/14 09:00:33;;;;;;;9.83;8.93;;;;;;;3.75;100.00;97911.34;4981627;28;20837;-70
2020/12/14 09:03:02;;;;;;;11.10;10.10;;;;;;;3.67;100.00;97911.13;4969135;28;20610;-71
2020/12/14 09:05:33;;;;;;;10.77;9.87;;;;;;;3.57;100.00;97918.03;4966172;28;20281;-74
2020/12/14 09:08:11;;;;;;;10.17;9.27;;;;;;;3.67;100.00;97916.38;4963623;28;20244;-71
2020/12/14 09:10:40;;;;;;;8.67;7.97;;;;;;;3.68;100.00;97912.78;4961974;28;20470;-70
2020/12/14 09:13:08;;;;;;;11.23;9.33;;;;;;;3.60;100.00;97920.44;4985109;28;20206;-71
2020/12/14 09:15:37;;;;;;;10.50;9.00;;;;;;;3.73;100.00;97915.88;4982778;28;20825;-73
2020/12/14 09:18:05;;;;;;;10.17;9.27;;;;;;;3.82;100.00;97916.09;4971180;28;20364;-71
2020/12/14 09:20:32;;;;;;;9.90;9.00;;;;;;;3.89;100.00;97912.84;4968313;28;20344;-73
2020/12/14 09:23:00;;;;;;;11.10;10.20;;;;;;;3.99;100.00;97919.97;4963562;28;20222;-71
2020/12/14 09:25:27;;;;;;;9.93;9.13;;;;;;;4.18;100.00;97921.94;4947441;28;20221;-72
2020/12/14 09:27:55;;;;;;;10.60;9.70;;;;;;;4.07;100.00;97914.13;4981719;28;20237;-73
2020/12/14 09:30:23;;;;;;;10.00;9.10;;;;;;;4.10;100.00;97917.31;4979681;28;20450;-72
2020/12/14 09:32:50;;;;;;;10.00;9.10;;;;;;;4.08;100.00;97926.28;4978007;28;20219;-72
2020/12/14 09:35:17;;;;;;;10.73;9.80;;;;;;;4.08;100.00;97923.66;4977155;28;20213;-71
2020/12/14 09:37:44;;;;;;;9.73;8.83;;;;;;;4.13;100.00;97919.66;4949510;28;20237;-72
2020/12/14 09:40:11;;;;;;;10.13;9.23;;;;;;;4.07;100.00;97909.69;4946109;28;20214;-71
2020/12/14 09:42:38;;;;;;;11.07;10.07;;;;;;;4.10;100.00;97909.44;4982835;28;20771;-69
2020/12/14 09:45:06;;;;;;;10.07;9.17;;;;;;;4.22;100.00;97902.34;4979577;28;20250;-72
2020/12/14 09:47:34;;;;;;;10.33;9.43;;;;;;;4.37;100.00;97900.25;4981827;28;20341;-73
2020/12/14 09:50:02;;;;;;;9.80;8.90;;;;;;;4.14;100.00;97904.78;4958587;28;20738;-73
2020/12/14 09:52:29;;;;;;;10.80;9.90;;;;;;;4.19;100.00;97902.59;4963111;28;20213;-72
2020/12/14 09:54:56;;;;;;;10.37;9.57;;;;;;;3.92;100.00;97901.28;4926003;28;20635;-73
2020/12/14 09:57:23;;;;;;;10.83;9.93;;;;;;;4.27;100.00;97904.63;4982279;28;20228;-70
2020/12/14 09:59:50;;;;;;;11.40;10.40;;;;;;;4.24;100.00;97894.38;4959409;28;20957;-71
2020/12/14 10:02:18;;;;;;;11.60;10.50;;;;;;;4.44;100.00;97903.22;4985578;28;20219;-73
2020/12/14 10:04:46;;;;;;;11.40;10.40;;;;;;;4.48;100.00;97904.63;4960067;28;20228;-72
2020/12/14 10:07:13;;;;;;;10.80;9.83;;;;;;;4.39;100.00;97898.34;4982177;28;20256;-74
2020/12/14 10:09:41;;;;;;;10.83;9.90;;;;;;;4.41;100.00;97900.84;4932668;28;20717;-72
2020/12/14 10:12:08;;;;;;;10.17;9.27;;;;;;;4.44;100.00;97896.16;4974191;28;20364;-73
2020/12/14 10:14:39;;;;;;;10.27;9.43;;;;;;;4.38;100.00;97898.50;4959760;28;20734;-71
2020/12/14 10:17:06;;;;;;;11.53;10.50;;;;;;;4.52;100.00;97898.16;4956450;28;20259;-73
2020/12/14 10:19:35;;;;;;;11.20;10.13;;;;;;;4.35;100.00;97889.88;4957462;28;20555;-71
2020/12/14 10:22:02;;;;;;;10.00;9.20;;;;;;;4.50;100.00;97889.59;4976015;28;20730;-69
2020/12/14 10:24:29;;;;;;;10.57;9.57;;;;;;;4.48;100.00;97887.06;4942704;28;20701;-73
2020/12/14 10:26:56;;;;;;;10.43;9.57;;;;;;;4.50;100.00;97884.34;4951564;28;20248;-70
2020/12/14 10:29:24;;;;;;;10.40;9.43;;;;;;;4.51;100.00;97893.88;4974614;28;20840;-72
2020/12/14 10:31:51;;;;;;;11.00;10.10;;;;;;;4.45;100.00;97894.38;4961441;28;20594;-71
2020/12/14 10:34:19;;;;;;;9.83;9.03;;;;;;;4.42;100.00;97899.91;4981415;28;20296;-72
2020/12/14 10:36:47;;;;;;;8.87;8.17;;;;;;;4.35;100.00;97905.63;4979012;28;20225;-73
2020/12/14 10:39:14;;;;;;;9.77;8.97;;;;;;;4.38;100.00;97901.94;4951443;28;20233;-72
2020/12/14 10:41:42;;;;;;;9.73;8.93;;;;;;;4.59;100.00;97895.88;4951096;28;20681;-73
2020/12/14 10:44:09;;;;;;;9.23;8.47;;;;;;;4.76;100.00;97890.00;4960105;28;20213;-71
2020/12/14 10:46:37;;;;;;;8.90;8.20;;;;;;;4.70;100.00;97884.44;4964273;28;20324;-72
2020/12/14 10:49:04;;;;;;;9.70;8.90;;;;;;;4.76;100.00;97889.19;4982090;28;20212;-72
2020/12/14 10:51:31;;;;;;;8.30;7.70;;;;;;;4.64;98.85;97891.06;4979646;28;20428;-72
2020/12/14 10:53:59;;;;;;;9.27;8.43;;;;;;;4.56;100.00;97888.25;4981809;28;20213;-71
2020/12/14 10:56:27;;;;;;;9.03;8.33;;;;;;;4.57;99.40;97888.09;4922223;28;20702;-73
2020/12/14 10:58:55;;;;;;;9.30;8.50;;;;;;;4.68;99.81;97881.13;4979452;28;20581;-71
2020/12/14 11:01:23;;;;;;;9.67;8.07;;;;;;;4.84;99.17;97889.38;4980925;28;20323;-70
2020/12/14 11:03:50;;;;;;;8.53;7.87;;;;;;;4.78;98.97;97877.59;4965501;28;20217;-72
2020/12/14 11:06:17;;;;;;;8.33;7.73;;;;;;;4.86;98.98;97884.81;4983586;28;20221;-70
2020/12/14 11:08:46;;;;;;;9.57;8.77;;;;;;;4.88;100.00;97880.28;4952756;28;20240;-71
2020/12/14 11:11:15;;;;;;;10.53;9.53;;;;;;;5.13;99.92;97877.34;4946444;28;20443;-70
2020/12/14 11:13:42;;;;;;;9.57;8.67;;;;;;;5.23;98.70;97880.81;4958772;28;20220;-71
2020/12/14 11:16:09;;;;;;;10.73;9.83;;;;;;;5.34;97.93;97875.50;4963768;28;20255;-72
2020/12/14 11:18:36;;;;;;;8.53;7.93;;;;;;;5.27;98.03;97881.41;4987985;28;20713;-72
2020/12/14 11:21:08;;;;;;;8.67;7.83;;;;;;;5.46;97.83;97880.63;4982935;28;20493;-73
2020/12/14 11:23:35;;;;;;;9.47;8.70;;;;;;;5.34;97.59;97877.28;4986140;28;20207;-72
2020/12/14 11:26:04;;;;;;;8.53;7.93;;;;;;;5.62;95.82;97878.31;4951795;28;20217;-71
2020/12/14 11:28:32;;;;;;;8.57;7.97;;;;;;;5.70;95.41;97882.06;4955385;28;20228;-71